createdAt,value
2019-05-21T00:02:20.574Z,72.70
2019-05-21T00:04:47.811Z,73.33
2019-05-21T00:07:15.120Z,75.05
2019-05-21T00:09:42.349Z,68.55
2019-05-21T00:12:09.590Z,68.07
2019-05-21T00:14:37.095Z,62.55
2019-05-21T00:17:04.491Z,65.97
2019-05-21T00:19:31.794Z,67.82
2019-05-21T00:21:59.109Z,72.75
2019-05-21T00:24:26.417Z,70.03
2019-05-21T00:26:53.697Z,66.20
2019-05-21T00:29:57.996Z,67.50
2019-05-21T00:33:02.259Z,67.47
2019-05-21T00:36:06.278Z,64.77
2019-05-21T00:39:09.921Z,69.82
2019-05-21T00:42:04.760Z,67.32
2019-05-21T00:44:35.496Z,73.78
2019-05-21T00:47:04.405Z,65.20
2019-05-21T00:49:31.764Z,69.03
2019-05-21T00:52:06.939Z,65.47
2019-05-21T00:54:28.347Z,63.65
2019-05-21T00:56:55.667Z,62.33
2019-05-21T00:59:22.924Z,57.38
2019-05-21T01:01:50.274Z,61.40
2019-05-21T01:04:17.748Z,64.77
2019-05-21T01:06:45.016Z,62.03
2019-05-21T01:09:12.304Z,65.55
2019-05-21T01:11:39.620Z,62.65
2019-05-21T01:14:06.849Z,66.22
2019-05-21T01:16:34.142Z,60.85
2019-05-21T01:19:01.488Z,69.85
2019-05-21T01:21:28.725Z,65.87
2019-05-21T01:23:55.988Z,68.05
2019-05-21T01:26:23.265Z,69.85
2019-05-21T01:28:50.530Z,63.95
2019-05-21T01:31:17.757Z,62.25
2019-05-21T01:33:45.012Z,68.83
2019-05-21T01:36:12.250Z,60.52
2019-05-21T01:38:39.587Z,62.30
2019-05-21T01:41:06.835Z,62.25
2019-05-21T01:43:34.125Z,64.60
2019-05-21T01:46:01.317Z,68.00
2019-05-21T01:48:28.636Z,63.33
2019-05-21T01:50:55.896Z,67.45
2019-05-21T01:53:23.227Z,72.75
2019-05-21T01:55:50.447Z,73.02
2019-05-21T01:58:17.754Z,67.12
2019-05-21T02:00:45.092Z,70.12
2019-05-21T02:03:12.348Z,67.42
2019-05-21T02:05:39.607Z,61.30
2019-05-21T02:08:06.909Z,61.90
2019-05-21T02:10:34.156Z,60.60
2019-05-21T02:13:01.411Z,67.70
2019-05-21T02:15:28.684Z,64.53
2019-05-21T02:17:55.952Z,69.17
2019-05-21T02:20:23.224Z,64.77
2019-05-21T02:22:50.456Z,70.85
2019-05-21T02:25:18.093Z,67.42
2019-05-21T02:27:45.460Z,65.03
2019-05-21T02:30:13.311Z,72.53
2019-05-21T02:32:40.964Z,64.87
2019-05-21T02:35:08.369Z,68.78
2019-05-21T02:37:36.079Z,66.72
2019-05-21T02:40:04.737Z,67.08
2019-05-21T02:42:32.040Z,68.47
2019-05-21T02:44:59.361Z,62.45
2019-05-21T02:47:26.591Z,67.67
2019-05-21T02:49:53.864Z,65.20
2019-05-21T02:52:21.158Z,65.50
2019-05-21T02:54:48.383Z,71.85
2019-05-21T02:57:15.674Z,66.80
2019-05-21T02:59:44.739Z,66.50
2019-05-21T03:02:22.865Z,65.85
2019-05-21T03:04:50.124Z,67.70
2019-05-21T03:07:17.350Z,70.62
2019-05-21T03:09:45.808Z,71.30
2019-05-21T03:12:13.332Z,64.72
2019-05-21T03:14:40.590Z,68.40
2019-05-21T03:17:07.835Z,69.10
2019-05-21T03:19:35.173Z,69.75
2019-05-21T03:22:02.484Z,77.00
2019-05-21T03:24:29.796Z,65.12
2019-05-21T03:26:57.086Z,70.28
2019-05-21T03:29:24.321Z,72.45
2019-05-21T03:31:51.646Z,74.80
2019-05-21T03:34:19.583Z,68.22
2019-05-21T03:36:47.017Z,81.80
2019-05-21T03:39:18.886Z,74.30
2019-05-21T03:41:43.545Z,84.80
2019-05-21T03:44:10.807Z,83.67
2019-05-21T03:46:38.090Z,74.22
2019-05-21T03:49:05.330Z,78.45
2019-05-21T03:51:32.625Z,75.60
2019-05-21T03:53:59.872Z,74.90
2019-05-21T03:56:27.109Z,82.50
2019-05-21T03:58:54.380Z,88.27
2019-05-21T04:01:21.634Z,79.70
2019-05-21T04:03:48.896Z,83.07
2019-05-21T04:06:16.129Z,65.80
2019-05-21T04:08:43.471Z,66.77
2019-05-21T04:11:10.723Z,72.12
2019-05-21T04:13:38.042Z,67.00
2019-05-21T04:16:17.375Z,76.75
2019-05-21T04:19:05.933Z,67.72
2019-05-21T04:21:33.202Z,65.87
2019-05-21T04:24:00.619Z,65.42
2019-05-21T04:26:28.360Z,70.55
2019-05-21T04:28:55.728Z,72.22
2019-05-21T04:31:23.075Z,68.72
2019-05-21T04:33:50.306Z,64.82
2019-05-21T04:36:17.598Z,69.32
2019-05-21T04:38:44.845Z,55.92
2019-05-21T04:41:12.132Z,66.60
2019-05-21T04:43:39.405Z,66.57
2019-05-21T04:46:06.668Z,67.42
2019-05-21T04:48:33.915Z,58.45
2019-05-21T04:51:01.235Z,61.28
2019-05-21T04:53:28.544Z,64.12
2019-05-21T04:55:55.756Z,61.45
2019-05-21T04:58:23.027Z,69.35
2019-05-21T05:00:50.253Z,62.15
2019-05-21T05:03:17.549Z,68.95
2019-05-21T05:05:44.796Z,62.70
2019-05-21T05:08:12.077Z,62.73
2019-05-21T05:10:39.854Z,62.38
2019-05-21T05:13:07.203Z,67.32
2019-05-21T05:15:34.449Z,75.20
2019-05-21T05:18:01.783Z,72.90
2019-05-21T05:20:29.025Z,67.25
2019-05-21T05:22:56.279Z,66.55
2019-05-21T05:25:23.554Z,62.85
2019-05-21T05:27:50.760Z,68.62
2019-05-21T05:30:18.039Z,69.30
2019-05-21T05:32:45.387Z,67.90
2019-05-21T05:35:12.784Z,60.92
2019-05-21T05:37:47.872Z,65.12
2019-05-21T05:40:10.632Z,73.45
2019-05-21T05:42:37.977Z,60.28
2019-05-21T05:45:06.764Z,51.92
2019-05-21T05:47:34.127Z,58.23
2019-05-21T05:50:10.668Z,63.63
2019-05-21T05:52:37.903Z,56.15
2019-05-21T05:55:05.308Z,57.70
2019-05-21T05:57:32.561Z,49.88
2019-05-21T05:59:59.856Z,61.55
2019-05-21T06:02:27.088Z,50.90
2019-05-21T06:04:54.433Z,52.80
2019-05-21T06:07:21.673Z,51.37
2019-05-21T06:09:48.934Z,50.83
2019-05-21T06:12:16.233Z,52.67
2019-05-21T06:14:43.476Z,53.68
2019-05-21T06:17:12.165Z,42.13
2019-05-21T06:19:39.805Z,42.17
2019-05-21T06:22:07.166Z,45.40
2019-05-21T06:24:34.420Z,57.15
2019-05-21T06:27:01.952Z,47.23
2019-05-21T06:29:29.219Z,53.15
2019-05-21T06:31:56.465Z,44.23
2019-05-21T06:34:23.752Z,51.08
2019-05-21T06:36:51.280Z,48.98
2019-05-21T06:39:18.568Z,55.95
2019-05-21T06:41:45.855Z,52.40
2019-05-21T06:44:13.132Z,47.67
2019-05-21T06:46:40.456Z,56.88
2019-05-21T06:49:07.687Z,46.13
2019-05-21T06:51:34.912Z,54.60
2019-05-21T06:54:02.564Z,51.30
2019-05-21T06:56:30.435Z,47.30
2019-05-21T06:58:57.697Z,57.73
2019-05-21T07:01:28.834Z,50.00
2019-05-21T07:03:54.157Z,51.37
2019-05-21T07:06:21.475Z,50.70
2019-05-21T07:08:48.767Z,48.42
2019-05-21T07:11:16.008Z,49.00
2019-05-21T07:13:43.246Z,45.95
2019-05-21T07:16:10.595Z,54.90
2019-05-21T07:18:41.229Z,53.05
2019-05-21T07:21:07.006Z,46.10
2019-05-21T07:23:34.343Z,45.20
2019-05-21T07:26:01.649Z,50.80
2019-05-21T07:28:28.906Z,37.10
2019-05-21T07:30:56.151Z,48.68
2019-05-21T07:33:23.423Z,54.90
2019-05-21T07:35:50.665Z,60.40
2019-05-21T07:38:18.044Z,63.10
2019-05-21T07:40:45.337Z,52.88
2019-05-21T07:43:12.634Z,56.77
2019-05-21T07:45:39.889Z,52.05
2019-05-21T07:48:07.136Z,58.45
2019-05-21T07:50:34.407Z,51.23
2019-05-21T07:53:01.659Z,53.70
2019-05-21T07:55:28.929Z,56.92
2019-05-21T07:57:56.159Z,46.18
2019-05-21T08:00:23.463Z,49.38
2019-05-21T08:02:50.721Z,56.40
2019-05-21T08:05:17.987Z,50.48
2019-05-21T08:07:45.237Z,55.50
2019-05-21T08:10:12.587Z,57.20
2019-05-21T08:12:40.786Z,58.45
2019-05-21T08:15:09.344Z,51.30
2019-05-21T08:17:36.615Z,45.80
2019-05-21T08:20:09.829Z,53.13
2019-05-21T08:22:36.104Z,57.38
2019-05-21T08:25:04.099Z,54.98
2019-05-21T08:27:31.428Z,47.15
2019-05-21T08:29:58.741Z,54.35
2019-05-21T08:32:26.052Z,50.80
2019-05-21T08:34:53.436Z,57.20
2019-05-21T08:37:20.644Z,47.27
2019-05-21T08:39:47.965Z,53.38
2019-05-21T08:42:15.210Z,60.17
2019-05-21T08:44:42.565Z,47.58
2019-05-21T08:47:09.934Z,47.67
2019-05-21T08:49:37.171Z,55.45
2019-05-21T08:52:04.716Z,53.02
2019-05-21T08:54:50.652Z,50.73
2019-05-21T08:57:18.308Z,56.25
2019-05-21T08:59:45.794Z,53.25
2019-05-21T09:02:12.973Z,49.33
2019-05-21T09:05:18.285Z,48.05
2019-05-21T09:07:09.531Z,53.50
2019-05-21T09:09:49.373Z,47.25
2019-05-21T09:12:05.886Z,53.17
2019-05-21T09:14:33.205Z,54.85
2019-05-21T09:17:00.479Z,53.52
2019-05-21T09:19:27.716Z,56.95
2019-05-21T09:21:56.343Z,52.35
2019-05-21T09:24:23.815Z,54.15
2019-05-21T09:26:51.073Z,47.73
2019-05-21T09:29:18.372Z,45.83
2019-05-21T09:31:45.627Z,47.05
2019-05-21T09:34:12.869Z,49.53
2019-05-21T09:36:40.140Z,54.80
2019-05-21T09:39:07.383Z,43.50
2019-05-21T09:41:34.660Z,42.13
2019-05-21T09:44:02.212Z,46.77
2019-05-21T09:46:29.529Z,41.48
2019-05-21T09:48:56.791Z,44.40
2019-05-21T09:51:24.177Z,45.20
2019-05-21T09:53:51.450Z,46.30
2019-05-21T09:56:33.855Z,51.73
2019-05-21T09:59:09.988Z,42.98
2019-05-21T10:01:48.026Z,41.33
2019-05-21T10:04:14.736Z,47.85
2019-05-21T10:06:41.976Z,49.05
2019-05-21T10:09:13.183Z,40.58
2019-05-21T10:11:40.443Z,39.30
2019-05-21T10:14:07.666Z,44.70
2019-05-21T10:16:34.957Z,42.58
2019-05-21T10:19:02.191Z,47.30
2019-05-21T10:21:29.448Z,44.58
2019-05-21T10:23:56.696Z,49.88
2019-05-21T10:26:24.300Z,45.28
2019-05-21T10:28:51.700Z,46.10
2019-05-21T10:31:18.954Z,44.70
2019-05-21T10:33:46.160Z,39.30
2019-05-21T10:36:13.489Z,45.20
2019-05-21T10:38:40.750Z,40.70
2019-05-21T10:41:08.078Z,41.45
2019-05-21T10:43:35.340Z,42.55
2019-05-21T10:46:02.979Z,43.08
2019-05-21T10:48:30.417Z,45.55
2019-05-21T10:50:57.678Z,46.42
2019-05-21T10:53:24.907Z,40.83
2019-05-21T10:55:52.197Z,34.60
2019-05-21T10:58:19.453Z,47.58
2019-05-21T11:00:47.771Z,39.30
2019-05-21T11:03:18.796Z,42.73
2019-05-21T11:05:49.465Z,36.00
2019-05-21T11:08:25.237Z,41.55
2019-05-21T11:10:46.179Z,45.65
2019-05-21T11:13:13.440Z,49.42
2019-05-21T11:15:40.951Z,36.83
2019-05-21T11:18:10.930Z,32.67
2019-05-21T11:20:37.596Z,34.15
2019-05-21T11:23:04.859Z,34.80
2019-05-21T11:25:32.165Z,33.05
2019-05-21T11:27:59.443Z,27.50
2019-05-21T11:30:26.728Z,42.27
2019-05-21T11:32:53.988Z,32.67
2019-05-21T11:35:21.249Z,35.20
2019-05-21T11:37:48.473Z,31.20
2019-05-21T11:40:16.418Z,34.23
2019-05-21T11:42:43.676Z,34.63
2019-05-21T11:45:11.241Z,34.75
2019-05-21T11:47:38.509Z,34.15
2019-05-21T11:50:06.277Z,33.08
2019-05-21T11:52:33.895Z,28.92
2019-05-21T11:55:01.237Z,30.60
2019-05-21T11:57:28.532Z,32.42
2019-05-21T11:59:55.803Z,36.83
2019-05-21T12:02:23.086Z,28.73
2019-05-21T12:04:50.724Z,38.65
2019-05-21T12:07:17.944Z,40.52
2019-05-21T12:09:45.285Z,37.83
2019-05-21T12:12:12.548Z,37.93
2019-05-21T12:14:39.909Z,41.20
2019-05-21T12:17:07.140Z,41.48
2019-05-21T12:19:34.341Z,38.10
2019-05-21T12:22:01.553Z,30.08
2019-05-21T12:24:28.877Z,33.38
2019-05-21T12:26:56.110Z,39.58
2019-05-21T12:29:23.429Z,36.55
2019-05-21T12:31:50.740Z,34.40
2019-05-21T12:34:18.097Z,31.82
2019-05-21T12:36:45.320Z,37.10
2019-05-21T12:39:14.667Z,34.33
2019-05-21T12:41:41.806Z,37.35
2019-05-21T12:44:09.158Z,31.85
2019-05-21T12:46:36.404Z,29.77
2019-05-21T12:49:03.676Z,32.58
2019-05-21T12:51:30.893Z,39.00
2019-05-21T12:53:58.092Z,34.88
2019-05-21T12:56:25.374Z,38.70
2019-05-21T12:58:52.605Z,36.70
2019-05-21T13:01:19.932Z,38.63
2019-05-21T13:03:47.211Z,32.28
2019-05-21T13:06:14.445Z,33.88
2019-05-21T13:08:41.779Z,34.73
2019-05-21T13:11:09.042Z,36.30
2019-05-21T13:13:36.325Z,31.73
2019-05-21T13:16:03.776Z,33.28
2019-05-21T13:18:31.187Z,29.85
2019-05-21T13:20:58.483Z,28.27
2019-05-21T13:23:25.953Z,36.17
2019-05-21T13:25:53.312Z,38.35
2019-05-21T13:28:20.558Z,35.43
2019-05-21T13:30:47.816Z,32.70
2019-05-21T13:33:15.056Z,31.57
2019-05-21T13:35:42.648Z,29.77
2019-05-21T13:38:13.387Z,31.02
2019-05-21T13:40:39.195Z,33.58
2019-05-21T13:43:06.448Z,30.30
2019-05-21T13:45:33.806Z,40.40
2019-05-21T13:48:01.049Z,31.17
2019-05-21T13:50:28.336Z,29.50
2019-05-21T13:52:55.644Z,35.40
2019-05-21T13:55:22.944Z,28.77
2019-05-21T13:57:50.217Z,34.48
2019-05-21T14:00:24.077Z,30.95
2019-05-21T14:02:51.462Z,36.30
2019-05-21T14:05:18.727Z,28.35
2019-05-21T14:07:46.028Z,30.27
2019-05-21T14:10:18.252Z,29.15
2019-05-21T14:12:42.447Z,25.48
2019-05-21T14:15:12.010Z,28.17
2019-05-21T14:17:39.356Z,26.55
2019-05-21T14:20:07.167Z,26.73
2019-05-21T14:22:36.611Z,26.17
2019-05-21T14:25:03.763Z,32.28
2019-05-21T14:27:43.645Z,33.13
2019-05-21T14:30:00.229Z,32.45
2019-05-21T14:32:27.636Z,30.10
2019-05-21T14:35:01.507Z,29.98
2019-05-21T14:37:24.203Z,31.02
2019-05-21T14:39:51.641Z,31.30
2019-05-21T14:42:18.948Z,33.13
2019-05-21T14:44:46.288Z,35.05
2019-05-21T14:47:13.561Z,32.65
2019-05-21T14:49:40.826Z,30.57
2019-05-21T14:52:09.311Z,31.97
2019-05-21T14:54:36.706Z,32.48
2019-05-21T14:57:09.438Z,36.48
2019-05-21T14:59:36.743Z,34.55
2019-05-21T15:02:04.308Z,34.90
2019-05-21T15:04:31.928Z,33.15
2019-05-21T15:06:59.465Z,31.42
2019-05-21T15:09:26.799Z,27.85
2019-05-21T15:11:54.064Z,31.00
2019-05-21T15:14:21.308Z,38.45
2019-05-21T15:16:48.577Z,33.85
2019-05-21T15:19:15.824Z,33.50
2019-05-21T15:21:47.171Z,32.42
2019-05-21T15:24:14.852Z,35.03
2019-05-21T15:26:42.161Z,31.93
2019-05-21T15:29:09.400Z,31.17
2019-05-21T15:31:36.684Z,34.83
2019-05-21T15:34:04.149Z,34.45
2019-05-21T15:36:31.505Z,36.95
2019-05-21T15:38:58.811Z,33.20
2019-05-21T15:41:26.196Z,30.48
2019-05-21T15:43:53.476Z,28.30
2019-05-21T15:46:20.820Z,25.08
2019-05-21T15:48:48.036Z,22.77
2019-05-21T15:51:15.298Z,19.90
2019-05-21T15:53:42.810Z,15.88
2019-05-21T15:56:10.251Z,14.25
2019-05-21T15:58:37.633Z,24.95
2019-05-21T16:01:04.920Z,16.40
2019-05-21T16:03:32.164Z,12.37
2019-05-21T16:05:59.424Z,13.45
2019-05-21T16:08:26.752Z,16.35
2019-05-21T16:10:54.443Z,19.57
2019-05-21T16:13:21.717Z,18.85
2019-05-21T16:15:48.944Z,21.55
2019-05-21T16:18:16.213Z,20.17
2019-05-21T16:20:43.465Z,19.42
2019-05-21T16:23:10.720Z,19.87
2019-05-21T16:25:37.936Z,17.10
2019-05-21T16:28:05.190Z,20.77
2019-05-21T16:30:32.515Z,18.48
2019-05-21T16:32:59.756Z,16.70
2019-05-21T16:35:27.495Z,15.93
2019-05-21T16:37:54.792Z,15.35
2019-05-21T16:40:22.120Z,17.87
2019-05-21T16:42:49.378Z,16.07
2019-05-21T16:45:16.818Z,15.45
2019-05-21T16:47:46.515Z,16.95
2019-05-21T16:50:13.844Z,15.93
2019-05-21T16:52:41.187Z,16.65
2019-05-21T16:55:08.767Z,21.23
2019-05-21T16:57:36.049Z,18.45
2019-05-21T17:00:05.100Z,19.85
2019-05-21T17:02:32.354Z,18.57
2019-05-21T17:04:59.596Z,18.27
2019-05-21T17:07:26.929Z,28.87
2019-05-21T17:09:54.156Z,22.15
2019-05-21T17:12:21.387Z,23.02
2019-05-21T17:14:50.039Z,26.82
2019-05-21T17:17:17.368Z,27.50
2019-05-21T17:19:44.636Z,25.57
2019-05-21T17:22:11.867Z,29.72
2019-05-21T17:24:39.180Z,30.10
2019-05-21T17:27:06.412Z,28.00
2019-05-21T17:29:33.769Z,26.60
2019-05-21T17:32:01.156Z,29.05
2019-05-21T17:34:28.460Z,29.55
2019-05-21T17:36:55.721Z,27.05
2019-05-21T17:39:23.222Z,33.40
2019-05-21T17:41:50.499Z,38.38
2019-05-21T17:44:17.759Z,42.62
2019-05-21T17:46:45.023Z,34.83
2019-05-21T17:49:12.428Z,35.10
2019-05-21T17:51:39.711Z,44.10
2019-05-21T17:54:06.964Z,35.25
2019-05-21T17:56:34.232Z,38.48
2019-05-21T17:59:01.515Z,33.13
2019-05-21T18:01:28.888Z,44.93
2019-05-21T18:03:56.120Z,34.50
2019-05-21T18:06:23.975Z,38.33
2019-05-21T18:08:51.593Z,34.43
2019-05-21T18:11:18.839Z,35.73
2019-05-21T18:13:48.053Z,35.48
2019-05-21T18:16:15.773Z,36.48
2019-05-21T18:18:43.463Z,36.95
2019-05-21T18:21:11.321Z,34.38
2019-05-21T18:23:38.963Z,40.60
2019-05-21T18:26:06.468Z,37.03
2019-05-21T18:28:34.150Z,40.60
2019-05-21T18:31:02.067Z,44.70
2019-05-21T18:33:29.337Z,42.23
2019-05-21T18:35:56.624Z,39.58
2019-05-21T18:38:24.013Z,40.12
2019-05-21T18:40:51.375Z,41.60
2019-05-21T18:43:18.653Z,41.20
2019-05-21T18:45:45.901Z,42.08
2019-05-21T18:48:13.146Z,37.73
2019-05-21T18:50:40.367Z,42.10
2019-05-21T18:53:07.696Z,40.48
2019-05-21T18:55:35.301Z,38.63
2019-05-21T18:58:02.668Z,40.05
2019-05-21T19:00:30.037Z,46.02
2019-05-21T19:02:57.336Z,39.13
2019-05-21T19:05:24.604Z,45.33
2019-05-21T19:07:51.890Z,44.60
2019-05-21T19:10:19.213Z,45.45
2019-05-21T19:12:46.493Z,35.63
2019-05-21T19:15:13.845Z,36.95
2019-05-21T19:17:41.316Z,35.92
2019-05-21T19:20:09.071Z,36.42
2019-05-21T19:22:36.349Z,37.20
2019-05-21T19:25:04.421Z,30.88
2019-05-21T19:27:31.753Z,35.92
2019-05-21T19:29:59.016Z,33.88
2019-05-21T19:32:26.439Z,37.20
2019-05-21T19:34:53.781Z,35.35
2019-05-21T19:37:21.045Z,38.20
2019-05-21T19:39:48.352Z,40.17
2019-05-21T19:42:15.608Z,34.65
2019-05-21T19:44:42.883Z,34.95
2019-05-21T19:47:10.169Z,38.65
2019-05-21T19:49:37.435Z,41.85
2019-05-21T19:52:04.701Z,37.98
2019-05-21T19:54:31.972Z,42.90
2019-05-21T19:56:59.217Z,47.03
2019-05-21T19:59:26.544Z,47.75
2019-05-21T20:01:55.496Z,52.85
2019-05-21T20:04:23.065Z,50.23
2019-05-21T20:06:50.466Z,46.77
2019-05-21T20:09:20.362Z,47.38
2019-05-21T20:11:47.610Z,51.73
2019-05-21T20:14:14.906Z,50.73
2019-05-21T20:16:42.311Z,49.08
2019-05-21T20:19:10.805Z,52.73
2019-05-21T20:21:38.848Z,44.50
2019-05-21T20:24:06.239Z,54.35
2019-05-21T20:26:35.606Z,48.63
2019-05-21T20:29:03.658Z,48.35
2019-05-21T20:31:30.873Z,48.83
2019-05-21T20:33:58.305Z,48.45
2019-05-21T20:36:26.114Z,51.75
2019-05-21T20:38:53.438Z,54.98
2019-05-21T20:41:22.110Z,48.15
2019-05-21T20:43:58.518Z,54.88
2019-05-21T20:46:19.748Z,59.15
2019-05-21T20:48:47.918Z,51.35
2019-05-21T20:51:15.568Z,54.27
2019-05-21T20:53:44.432Z,64.12
2019-05-21T20:56:12.222Z,65.85
2019-05-21T20:58:39.680Z,61.05
2019-05-21T21:01:07.840Z,62.70
2019-05-21T21:03:35.804Z,68.95
2019-05-21T21:06:04.441Z,67.62
2019-05-21T21:08:35.545Z,75.65
2019-05-21T21:11:04.477Z,66.60
2019-05-21T21:13:31.908Z,74.20
2019-05-21T21:15:59.168Z,73.07
2019-05-21T21:18:26.389Z,68.30
2019-05-21T21:20:53.658Z,69.07
2019-05-21T21:23:24.173Z,67.08
2019-05-21T21:25:51.748Z,67.15
2019-05-21T21:28:19.225Z,77.27
2019-05-21T21:30:46.920Z,82.57
2019-05-21T21:33:14.444Z,74.50
2019-05-21T21:35:43.063Z,80.60
2019-05-21T21:38:10.571Z,80.60
2019-05-21T21:40:38.231Z,75.32
2019-05-21T21:43:07.960Z,72.67
2019-05-21T21:45:34.664Z,76.47
2019-05-21T21:48:02.023Z,83.37
2019-05-21T21:50:29.231Z,90.35
2019-05-21T21:52:56.593Z,79.22
2019-05-21T21:55:23.840Z,76.62
2019-05-21T21:57:51.822Z,87.80
2019-05-21T22:01:34.292Z,96.55
2019-05-21T22:04:05.292Z,81.97
2019-05-21T22:09:04.317Z,85.80
2019-05-21T22:11:32.073Z,88.27
2019-05-21T22:13:59.932Z,92.62
2019-05-21T22:16:27.193Z,82.82
2019-05-21T22:18:54.552Z,80.65
2019-05-21T22:21:21.902Z,79.07
2019-05-21T22:23:50.451Z,87.82
2019-05-21T22:26:18.297Z,83.60
2019-05-21T22:28:46.027Z,92.75
2019-05-21T22:31:13.312Z,85.55
2019-05-21T22:33:40.563Z,80.10
2019-05-21T22:36:07.875Z,77.20
2019-05-21T22:38:35.115Z,88.92
2019-05-21T22:41:02.431Z,91.45
2019-05-21T22:43:29.733Z,84.15
2019-05-21T22:45:56.960Z,93.33
2019-05-21T22:48:24.343Z,85.45
2019-05-21T22:50:51.411Z,93.15
2019-05-21T22:53:18.588Z,92.75
2019-05-21T22:55:47.259Z,90.12
2019-05-21T22:58:14.488Z,91.92
2019-05-21T23:00:41.961Z,95.38
2019-05-21T23:03:09.217Z,98.60
2019-05-21T23:05:36.477Z,102.05
2019-05-21T23:08:04.569Z,102.55
2019-05-21T23:10:32.048Z,101.65
2019-05-21T23:12:59.521Z,95.60
2019-05-21T23:15:27.753Z,95.65
2019-05-21T23:17:55.593Z,100.50
2019-05-21T23:20:27.164Z,105.60
2019-05-21T23:22:56.348Z,98.90
2019-05-21T23:25:24.501Z,98.52
2019-05-21T23:27:52.249Z,100.82
2019-05-21T23:30:19.524Z,93.42
2019-05-21T23:32:46.742Z,99.60
2019-05-21T23:35:15.379Z,91.22
2019-05-21T23:37:43.928Z,99.35
2019-05-21T23:40:12.138Z,92.35
2019-05-21T23:42:39.414Z,88.92
2019-05-21T23:45:08.269Z,97.70
2019-05-21T23:47:36.161Z,96.25
2019-05-21T23:50:03.819Z,90.28
2019-05-21T23:52:32.047Z,90.47
2019-05-21T23:54:59.424Z,95.00
2019-05-21T23:57:27.555Z,89.67
2019-05-21T23:59:55.369Z,91.75
